Time;durP1;ratioP1;P1;durP2;ratioP2;P2;SDS_P1;SDS_P2;PMS_P1;PMS_P2;Temp;Humidity;BMP_temperature;BMP_pressure;BME280_temperature;BME280_humidity;BME280_pressure;Samples;Min_cycle;Max_cycle;Signal;HPM_P1;HPM_P2
2021/08/09 00:00:26;;;;;;;10.00;3.50;;;;;;;19.69;60.84;93386.28;5110411;28;20044;-88
2021/08/09 00:02:55;;;;;;;4.85;3.65;;;;;;;18.89;60.96;93265.19;5110104;28;20044;-88
2021/08/09 00:05:21;;;;;;;5.88;3.75;;;;;;;19.62;60.92;93383.16;5110639;28;20043;-87
2021/08/09 00:07:48;;;;;;;5.50;3.47;;;;;;;19.59;61.02;93389.66;5110418;28;20055;-87
2021/08/09 00:10:15;;;;;;;4.45;3.50;;;;;;;19.40;61.52;93371.19;5110512;28;20384;-87
2021/08/09 00:12:42;;;;;;;7.03;3.55;;;;;;;19.23;61.24;93345.41;5110214;28;20058;-88
2021/08/09 00:15:10;;;;;;;8.07;3.78;;;;;;;19.31;61.72;93365.69;5110456;27;20061;-87
2021/08/09 00:17:37;;;;;;;5.10;3.35;;;;;;;19.28;61.55;93365.44;5110532;28;20066;-88
2021/08/09 00:20:06;;;;;;;6.43;3.70;;;;;;;19.44;61.73;93385.25;5110059;28;20053;-87
2021/08/09 00:22:33;;;;;;;5.28;3.58;;;;;;;19.39;61.88;93385.25;5109981;28;20047;-88
2021/08/09 00:25:00;;;;;;;6.72;3.70;;;;;;;19.39;61.85;93389.69;5110444;28;21016;-87
2021/08/09 00:27:27;;;;;;;6.28;4.22;;;;;;;19.27;61.59;93372.50;5109889;28;20050;-88
2021/08/09 00:29:54;;;;;;;7.75;4.03;;;;;;;19.30;62.34;93387.56;5109666;28;20053;-88
2021/08/09 00:32:20;;;;;;;7.78;3.90;;;;;;;18.37;62.03;93258.09;5110000;28;20058;-88
2021/08/09 00:34:47;;;;;;;5.88;4.15;;;;;;;19.22;62.10;93378.47;5109840;28;20082;-88
2021/08/09 00:37:34;;;;;;;7.60;4.65;;;;;;;19.26;62.13;93389.16;5109681;28;20043;-87
2021/08/09 00:40:01;;;;;;;8.27;4.75;;;;;;;19.16;62.69;93382.09;5110192;28;20062;-87
2021/08/09 00:42:28;;;;;;;6.90;4.65;;;;;;;19.05;62.57;93378.72;5112714;28;21140;-88
2021/08/09 00:44:55;;;;;;;6.35;4.50;;;;;;;19.00;62.83;93368.25;5111444;28;20056;-88
2021/08/09 00:47:21;;;;;;;8.20;4.72;;;;;;;19.09;62.52;93368.56;5109757;28;20047;-87
2021/08/09 00:49:48;;;;;;;6.97;3.97;;;;;;;19.11;62.99;93365.69;5109907;27;20054;-88
2021/08/09 00:52:17;;;;;;;6.57;3.88;;;;;;;19.15;62.54;93367.53;5109599;28;20058;-86
2021/08/09 00:54:44;;;;;;;7.38;3.97;;;;;;;18.96;63.04;93336.75;5109311;28;20142;-88
2021/08/09 00:57:11;;;;;;;6.82;3.90;;;;;;;18.77;62.91;93318.25;5109755;28;20055;-88
2021/08/09 00:59:38;;;;;;;7.28;3.97;;;;;;;19.02;62.70;93344.59;5109550;28;20057;-88
2021/08/09 01:02:05;;;;;;;13.35;3.90;;;;;;;19.15;62.78;93367.53;5109845;28;20054;-84
2021/08/09 01:04:32;;;;;;;7.80;3.90;;;;;;;19.20;62.96;93372.72;5109611;28;20767;-84
2021/08/09 01:06:59;;;;;;;5.47;3.70;;;;;;;19.09;62.78;93360.75;5109801;28;20048;-84
2021/08/09 01:09:31;;;;;;;6.57;3.90;;;;;;;19.15;62.84;93366.72;5109473;28;20900;-84
2021/08/09 01:12:05;;;;;;;5.55;3.60;;;;;;;19.12;62.79;93370.63;5109279;28;20058;-83
2021/08/09 01:14:40;;;;;;;9.43;3.70;;;;;;;18.80;63.05;93341.16;5109477;28;20052;-84
2021/08/09 01:17:10;;;;;;;5.45;3.60;;;;;;;18.83;63.18;93350.25;5109968;28;20051;-84
2021/08/09 01:20:02;;;;;;;6.63;4.13;;;;;;;18.97;64.12;93366.16;5109414;28;20492;-84
2021/08/09 01:22:40;;;;;;;7.00;4.18;;;;;;;18.90;63.96;93363.81;5109317;28;20047;-84
2021/08/09 01:25:16;;;;;;;7.82;4.20;;;;;;;18.84;63.94;93362.22;5109575;28;20565;-84
2021/08/09 01:27:48;;;;;;;8.00;4.70;;;;;;;18.80;64.61;93361.19;5109545;28;20047;-84
2021/08/09 01:30:16;;;;;;;8.45;4.50;;;;;;;18.78;64.07;93361.44;5109163;28;20492;-84
2021/08/09 01:32:46;;;;;;;13.27;5.43;;;;;;;18.81;64.01;93360.94;5109036;28;20048;-84
2021/08/09 01:35:15;;;;;;;9.93;4.40;;;;;;;18.65;63.80;93333.31;5109350;28;20389;-84
2021/08/09 01:37:45;;;;;;;10.30;4.68;;;;;;;18.63;64.48;93353.59;5109160;28;20047;-84
2021/08/09 01:40:13;;;;;;;15.63;5.63;;;;;;;18.56;65.53;93369.44;5110024;28;20051;-84
2021/08/09 01:42:43;;;;;;;8.85;4.47;;;;;;;18.39;65.61;93365.25;5113188;28;20063;-84
2021/08/09 01:45:13;;;;;;;8.50;4.32;;;;;;;18.42;65.63;93387.34;5113464;28;20055;-84
2021/08/09 01:47:41;;;;;;;11.23;4.80;;;;;;;18.35;66.22;93385.00;5113324;28;20051;-84
2021/08/09 01:50:10;;;;;;;8.63;4.30;;;;;;;18.12;66.98;93360.97;5113300;28;20059;-84
2021/08/09 01:52:39;;;;;;;9.13;4.55;;;;;;;18.29;67.38;93384.16;5112783;28;20047;-84
2021/08/09 01:55:08;;;;;;;9.02;4.75;;;;;;;18.13;67.63;93370.31;5113287;28;20050;-84
2021/08/09 01:57:36;;;;;;;9.15;4.10;;;;;;;18.19;67.54;93388.56;5112537;28;20055;-84
2021/08/09 02:00:06;;;;;;;7.63;3.72;;;;;;;18.25;67.93;93398.72;5113136;28;20054;-86
2021/08/09 02:02:34;;;;;;;8.43;3.70;;;;;;;18.14;68.11;93381.50;5112885;28;20048;-84
2021/08/09 02:05:05;;;;;;;8.52;3.83;;;;;;;18.27;68.44;93394.06;5113000;28;20134;-85
2021/08/09 02:07:34;;;;;;;8.10;3.53;;;;;;;18.07;67.98;93367.94;5112892;28;20043;-85
2021/08/09 02:10:02;;;;;;;5.38;3.63;;;;;;;17.86;69.63;93357.41;5112879;28;20427;-85
2021/08/09 02:12:30;;;;;;;8.18;3.67;;;;;;;18.24;69.13;93410.16;5112449;28;20058;-85
2021/08/09 02:15:00;;;;;;;10.48;3.42;;;;;;;18.15;68.38;93399.44;5112843;28;20044;-85
2021/08/09 02:17:38;;;;;;;9.52;4.38;;;;;;;18.16;67.91;93387.25;5112634;28;20040;-85
2021/08/09 02:20:12;;;;;;;7.25;3.20;;;;;;;18.32;68.87;93405.53;5112813;27;20047;-85
2021/08/09 02:22:43;;;;;;;5.18;3.60;;;;;;;18.36;68.32;93407.34;5112328;28;20055;-85
2021/08/09 02:25:14;;;;;;;6.82;3.58;;;;;;;18.32;68.85;93410.72;5112685;28;20048;-85
2021/08/09 02:27:44;;;;;;;6.53;3.85;;;;;;;18.29;68.95;93412.00;5112278;28;20142;-85
2021/08/09 02:30:12;;;;;;;4.47;3.38;;;;;;;18.22;68.65;93412.22;5112577;28;20105;-85
2021/08/09 02:32:42;;;;;;;5.22;4.13;;;;;;;18.18;68.82;93416.34;5112483;28;20047;-85
2021/08/09 02:35:15;;;;;;;6.97;4.05;;;;;;;18.06;69.04;93400.97;5112643;28;20052;-85
2021/08/09 02:37:42;;;;;;;5.72;3.38;;;;;;;18.03;69.70;93402.22;5112509;28;20040;-84
2021/08/09 02:40:11;;;;;;;6.28;3.45;;;;;;;18.12;69.56;93423.34;5112156;28;20055;-83
2021/08/09 02:42:38;;;;;;;6.35;3.78;;;;;;;18.10;69.47;93430.59;5112016;28;20051;-83
2021/08/09 02:45:06;;;;;;;6.30;3.60;;;;;;;18.13;69.66;93439.72;5112189;28;20054;-82
2021/08/09 02:47:37;;;;;;;5.40;3.50;;;;;;;18.10;69.29;93433.19;5112081;28;20051;-83
2021/08/09 02:50:06;;;;;;;7.82;4.00;;;;;;;18.12;69.82;93443.34;5111969;27;20043;-82
2021/08/09 02:52:34;;;;;;;8.13;4.35;;;;;;;18.06;69.69;93436.53;5099082;27;20054;-82
2021/08/09 02:55:02;;;;;;;6.40;4.00;;;;;;;17.99;70.98;93434.94;5112185;27;20051;-82
2021/08/09 02:57:31;;;;;;;8.80;3.80;;;;;;;17.97;70.75;93442.19;5111835;28;20051;-82
2021/08/09 02:59:58;;;;;;;7.38;3.80;;;;;;;17.96;70.53;93451.03;5112102;28;20135;-83
2021/08/09 03:02:28;;;;;;;12.38;4.25;;;;;;;17.96;70.56;93445.81;5112055;28;20050;-83
2021/08/09 03:04:56;;;;;;;6.93;4.03;;;;;;;17.96;70.42;93450.25;5111844;28;20093;-83
2021/08/09 03:07:27;;;;;;;5.18;3.70;;;;;;;17.98;69.89;93453.38;5111895;28;20047;-83
2021/08/09 03:09:54;;;;;;;6.82;3.75;;;;;;;17.90;70.55;93441.63;5111352;28;20043;-83
2021/08/09 03:12:21;;;;;;;9.13;3.83;;;;;;;17.93;70.24;93456.72;5111500;28;20043;-83
2021/08/09 03:14:52;;;;;;;6.18;3.83;;;;;;;17.94;70.15;93454.91;5111572;28;20047;-84
2021/08/09 03:17:19;;;;;;;6.80;4.32;;;;;;;17.76;70.84;93433.47;5090336;28;20047;-84
2021/08/09 03:19:46;;;;;;;8.25;4.22;;;;;;;17.82;71.51;93450.66;5111762;28;20097;-83
2021/08/09 03:22:12;;;;;;;17.88;3.92;;;;;;;17.72;72.14;93450.56;5111541;28;20051;-83
2021/08/09 03:24:41;;;;;;;9.82;4.13;;;;;;;17.76;71.34;93467.25;5111397;28;20488;-83
2021/08/09 03:27:08;;;;;;;12.18;4.55;;;;;;;17.80;70.72;93454.53;5111565;28;20052;-83
2021/08/09 03:29:35;;;;;;;5.93;4.07;;;;;;;17.83;71.38;93454.06;5111081;28;20079;-84
2021/08/09 03:32:02;;;;;;;10.27;4.40;;;;;;;17.70;71.20;93443.06;5111503;28;20075;-84
2021/08/09 03:34:28;;;;;;;7.43;4.13;;;;;;;17.40;71.61;93412.44;5111303;28;20959;-87
2021/08/09 03:36:55;;;;;;;13.00;4.32;;;;;;;17.75;71.04;93466.47;5110957;28;20048;-87
2021/08/09 03:39:23;;;;;;;10.05;3.88;;;;;;;17.44;71.21;93405.69;5111114;28;20051;-87
2021/08/09 03:41:51;;;;;;;11.25;4.63;;;;;;;17.85;70.42;93457.97;5112004;28;20047;-86
2021/08/09 03:44:18;;;;;;;7.82;3.90;;;;;;;17.85;70.37;93446.78;5113076;28;20044;-86
2021/08/09 03:46:45;;;;;;;12.13;5.15;;;;;;;17.88;70.51;93459.28;5111094;28;20054;-84
2021/08/09 03:49:11;;;;;;;8.63;4.45;;;;;;;17.84;70.01;93453.03;5111033;28;20047;-85
2021/08/09 03:51:39;;;;;;;8.85;4.53;;;;;;;17.93;69.96;93461.13;5110723;28;20040;-85
2021/08/09 03:54:07;;;;;;;11.77;4.75;;;;;;;17.94;69.85;93466.09;5110607;28;20058;-86
2021/08/09 03:56:34;;;;;;;11.68;5.00;;;;;;;17.97;69.84;93464.81;5110934;28;20046;-86
2021/08/09 03:59:02;;;;;;;16.00;5.22;;;;;;;17.97;69.89;93470.00;5110741;28;20059;-86
2021/08/09 04:01:29;;;;;;;9.60;5.53;;;;;;;18.01;69.25;93465.88;5110498;28;20741;-86
2021/08/09 04:03:56;;;;;;;11.63;5.28;;;;;;;18.02;69.72;93465.63;5109759;28;20400;-86
2021/08/09 04:06:23;;;;;;;15.25;5.63;;;;;;;18.06;69.65;93465.94;5110442;28;20044;-85
2021/08/09 04:08:50;;;;;;;11.85;6.38;;;;;;;18.11;69.32;93465.19;5110076;28;20056;-85
2021/08/09 04:11:17;;;;;;;14.15;7.43;;;;;;;18.12;69.54;93464.16;5110195;28;20044;-85
2021/08/09 04:13:44;;;;;;;16.65;8.27;;;;;;;18.05;69.83;93464.34;5110365;28;20048;-85
2021/08/09 04:16:12;;;;;;;18.25;8.23;;;;;;;17.99;69.68;93453.13;5110137;28;20051;-85
2021/08/09 04:18:40;;;;;;;21.13;9.10;;;;;;;18.15;70.16;93468.88;5110135;28;20055;-85
2021/08/09 04:21:06;;;;;;;26.55;10.65;;;;;;;18.16;70.15;93463.41;5110118;28;20500;-85
2021/08/09 04:23:33;;;;;;;14.48;8.15;;;;;;;17.95;70.09;93433.88;5109858;28;20047;-85
2021/08/09 04:26:00;;;;;;;22.50;8.57;;;;;;;18.21;69.92;93474.88;5110383;28;20047;-85
2021/08/09 04:28:27;;;;;;;21.33;9.50;;;;;;;18.22;70.11;93479.03;5109919;28;20048;-85
2021/08/09 04:30:54;;;;;;;25.38;9.90;;;;;;;18.16;70.16;93460.78;5109816;28;20044;-86
2021/08/09 04:33:22;;;;;;;25.40;8.70;;;;;;;18.17;70.63;93459.00;5110113;28;20055;-83
2021/08/09 04:35:48;;;;;;;21.17;9.48;;;;;;;18.28;70.04;93471.00;5110014;28;20051;-82
2021/08/09 04:38:15;;;;;;;24.75;10.70;;;;;;;18.32;70.41;93471.28;5109966;28;20044;-84
2021/08/09 04:40:42;;;;;;;17.27;9.77;;;;;;;18.39;70.55;93477.06;5110136;28;20061;-86
2021/08/09 04:43:09;;;;;;;20.95;9.90;;;;;;;18.34;69.17;93456.25;5110137;28;20047;-86
2021/08/09 04:45:36;;;;;;;15.90;9.32;;;;;;;18.56;70.02;93482.09;5109809;28;20055;-86
2021/08/09 04:48:04;;;;;;;14.65;7.90;;;;;;;18.23;72.47;93446.81;5109834;28;20438;-85
2021/08/09 04:50:32;;;;;;;18.45;8.20;;;;;;;18.50;70.56;93487.50;5109731;28;20054;-84
2021/08/09 04:53:07;;;;;;;16.73;8.05;;;;;;;18.58;70.13;93483.66;5109587;28;20054;-83
2021/08/09 04:55:34;;;;;;;15.95;7.20;;;;;;;18.70;69.89;93490.22;5109786;28;20051;-84
2021/08/09 04:58:01;;;;;;;16.48;7.53;;;;;;;18.72;69.29;93476.97;5109454;27;20047;-83
2021/08/09 05:00:28;;;;;;;20.27;7.60;;;;;;;18.90;69.03;93500.97;5109950;28;20054;-84
2021/08/09 05:02:54;;;;;;;20.42;7.70;;;;;;;18.90;69.25;93485.38;5109482;28;20040;-84
2021/08/09 05:05:26;;;;;;;18.90;8.27;;;;;;;18.96;68.50;93474.72;5109583;28;20047;-84
2021/08/09 05:07:56;;;;;;;16.67;7.75;;;;;;;19.10;68.66;93505.50;5109399;28;20060;-84
2021/08/09 05:10:23;;;;;;;14.45;7.32;;;;;;;19.11;68.52;93491.44;5109391;28;20062;-84
2021/08/09 05:12:50;;;;;;;17.75;8.10;;;;;;;19.26;67.42;93500.34;5109406;28;20051;-84
2021/08/09 05:15:16;;;;;;;16.02;8.48;;;;;;;19.40;67.22;93511.06;5112258;28;20056;-84
2021/08/09 05:17:43;;;;;;;18.42;8.00;;;;;;;19.50;66.20;93503.28;5113087;28;20047;-83
2021/08/09 05:20:11;;;;;;;13.13;7.38;;;;;;;19.70;65.44;93519.97;5113910;28;20051;-84
2021/08/09 05:22:38;;;;;;;22.85;10.60;;;;;;;19.44;64.83;93481.63;5113686;28;20050;-84
2021/08/09 05:25:10;;;;;;;18.20;9.23;;;;;;;19.71;66.12;93521.53;5113844;28;20055;-84
2021/08/09 05:27:36;;;;;;;26.33;9.10;;;;;;;19.69;65.40;93502.75;5113296;28;20043;-84
2021/08/09 05:30:09;;;;;;;35.55;15.85;;;;;;;19.90;65.59;93516.59;5113697;28;20054;-84
2021/08/09 05:32:37;;;;;;;33.28;13.68;;;;;;;19.94;65.28;93515.03;5113509;28;20044;-83
2021/08/09 05:35:04;;;;;;;34.13;14.27;;;;;;;19.92;66.01;93505.91;5113247;28;20641;-84
2021/08/09 05:37:34;;;;;;;32.22;15.05;;;;;;;19.89;65.87;93494.16;5113253;28;20052;-84
2021/08/09 05:40:02;;;;;;;33.35;13.80;;;;;;;19.98;64.60;93494.47;5113527;28;20058;-84
2021/08/09 05:42:30;;;;;;;27.73;13.07;;;;;;;20.28;63.22;93519.75;5113797;28;20051;-84
2021/08/09 05:44:57;;;;;;;33.33;12.98;;;;;;;20.45;62.44;93515.28;5113204;28;20043;-84
2021/08/09 05:47:24;;;;;;;31.17;12.73;;;;;;;20.55;64.48;93503.00;5113466;28;20047;-85
2021/08/09 05:49:51;;;;;;;33.95;13.63;;;;;;;20.73;62.44;93511.28;5113056;28;20050;-84
2021/08/09 05:52:21;;;;;;;32.83;14.45;;;;;;;20.88;63.45;93515.72;5112983;28;20047;-85
2021/08/09 05:54:48;;;;;;;35.55;13.48;;;;;;;20.98;63.64;93499.25;5113227;28;20051;-84
2021/08/09 05:57:15;;;;;;;31.65;13.35;;;;;;;21.09;63.27;93506.00;5112236;28;20040;-84
2021/08/09 05:59:44;;;;;;;35.03;13.45;;;;;;;21.20;61.21;93485.81;5112359;27;20051;-85
2021/08/09 06:02:11;;;;;;;27.70;11.48;;;;;;;21.68;61.14;93512.47;5112367;28;20047;-84
2021/08/09 06:04:38;;;;;;;26.48;10.85;;;;;;;21.88;59.78;93508.94;5110114;28;20046;-85
2021/08/09 06:07:05;;;;;;;22.02;9.88;;;;;;;22.10;60.33;93511.16;5112318;28;20051;-85
2021/08/09 06:09:34;;;;;;;25.65;10.20;;;;;;;21.94;60.86;93500.00;5111881;28;20055;-85
2021/08/09 06:12:01;;;;;;;21.75;9.95;;;;;;;22.25;60.01;93504.19;5112375;28;20069;-85
2021/08/09 06:14:27;;;;;;;26.52;11.13;;;;;;;22.45;59.46;93503.22;5112372;28;20055;-85
2021/08/09 06:16:56;;;;;;;30.23;12.95;;;;;;;22.77;57.39;93509.75;5110377;27;20435;-84
2021/08/09 06:19:22;;;;;;;31.88;11.18;;;;;;;23.09;55.92;93510.97;5107738;28;20043;-84
2021/08/09 06:21:49;;;;;;;28.17;12.20;;;;;;;23.43;56.01;93506.63;5110945;28;20048;-86
2021/08/09 06:24:16;;;;;;;35.65;14.88;;;;;;;23.67;54.75;93502.38;5112189;28;20514;-88
2021/08/09 06:26:43;;;;;;;25.90;12.65;;;;;;;23.12;54.82;93448.56;5107771;28;20043;-86
2021/08/09 06:29:10;;;;;;;39.17;14.15;;;;;;;23.44;54.68;93481.97;5112333;28;20051;-86
2021/08/09 06:31:36;;;;;;;43.50;15.20;;;;;;;23.87;53.69;93506.53;5111540;28;20050;-85
2021/08/09 06:34:05;;;;;;;36.28;15.75;;;;;;;24.15;52.85;93501.38;5112297;28;20768;-86
2021/08/09 06:36:31;;;;;;;40.70;16.88;;;;;;;24.48;51.64;93490.84;5112316;28;20048;-87
2021/08/09 06:38:58;;;;;;;46.40;17.48;;;;;;;24.42;51.02;93495.44;5112346;28;20404;-86
2021/08/09 06:41:26;;;;;;;41.55;16.23;;;;;;;24.77;50.33;93486.41;5112238;28;20051;-85
2021/08/09 06:43:55;;;;;;;38.05;16.85;;;;;;;25.14;48.40;93497.81;5111912;28;20073;-87
2021/08/09 06:46:21;;;;;;;37.13;16.02;;;;;;;25.38;47.64;93494.16;5112426;28;20055;-86
2021/08/09 06:48:48;;;;;;;41.05;17.50;;;;;;;25.34;47.35;93499.22;5111798;28;20048;-87
2021/08/09 06:51:17;;;;;;;42.70;17.33;;;;;;;25.55;47.48;93505.91;5111536;28;20408;-88
2021/08/09 06:53:43;;;;;;;37.65;17.05;;;;;;;25.87;47.02;93475.22;5111788;27;20056;-87
2021/08/09 06:56:14;;;;;;;39.55;16.55;;;;;;;26.61;45.59;93503.97;5111628;28;20039;-87
2021/08/09 06:58:40;;;;;;;43.63;17.92;;;;;;;27.09;44.23;93486.63;5111721;27;20060;-89
2021/08/09 07:01:07;;;;;;;51.55;20.67;;;;;;;27.65;42.98;93503.78;5111587;28;20048;-89
2021/08/09 07:03:34;;;;;;;45.75;19.08;;;;;;;27.99;42.03;93496.91;5111228;28;20535;-87
2021/08/09 07:06:01;;;;;;;45.78;20.15;;;;;;;28.17;41.60;93467.88;5111593;28;20412;-89
2021/08/09 07:08:29;;;;;;;78.40;23.60;;;;;;;28.66;40.38;93486.81;5110699;28;20051;-88
2021/08/09 07:10:56;;;;;;;55.72;26.02;;;;;;;28.99;39.97;93492.63;5110863;28;20416;-88
2021/08/09 07:13:23;;;;;;;54.28;22.40;;;;;;;28.97;39.32;93494.81;5111707;28;20056;-88
2021/08/09 07:15:50;;;;;;;64.75;26.95;;;;;;;28.81;39.91;93496.09;5111176;28;20048;-87
2021/08/09 07:18:17;;;;;;;58.40;27.52;;;;;;;29.14;39.47;93494.72;5111682;28;20416;-89
2021/08/09 07:20:43;;;;;;;68.65;29.92;;;;;;;29.23;38.54;93483.28;5111128;28;20051;-89
2021/08/09 07:23:10;;;;;;;78.13;32.40;;;;;;;29.63;38.56;93490.06;5111325;28;20057;-88
2021/08/09 07:25:39;;;;;;;85.75;35.85;;;;;;;29.76;37.92;93462.53;5111452;28;20050;-89
2021/08/09 07:28:06;;;;;;;80.28;34.45;;;;;;;30.23;37.10;93461.47;5111076;28;20067;-89
2021/08/09 07:30:32;;;;;;;71.00;28.40;;;;;;;30.33;36.24;93435.66;5111102;28;20130;-89
2021/08/09 07:32:59;;;;;;;61.72;24.70;;;;;;;30.94;35.65;93497.81;5111125;28;20077;-89
2021/08/09 07:35:27;;;;;;;62.33;21.92;;;;;;;31.02;35.00;93472.25;5110842;28;20044;-89
2021/08/09 07:37:54;;;;;;;53.63;20.90;;;;;;;30.49;35.23;93452.47;5109886;28;20044;-89
2021/08/09 07:40:21;;;;;;;47.25;23.15;;;;;;;31.23;34.86;93503.97;5111038;28;20043;-90
2021/08/09 07:42:49;;;;;;;41.60;19.33;;;;;;;31.09;33.99;93485.75;5110601;28;20048;-88
2021/08/09 07:45:16;;;;;;;33.22;15.25;;;;;;;30.69;33.98;93473.94;5110470;28;20388;-88
2021/08/09 07:47:43;;;;;;;41.75;15.98;;;;;;;31.29;34.00;93509.84;5110689;28;20504;-88
2021/08/09 07:50:11;;;;;;;24.33;10.05;;;;;;;31.26;31.16;93478.63;5110917;28;20043;-89
2021/08/09 07:52:38;;;;;;;19.30;8.65;;;;;;;30.85;30.48;93470.59;5110510;28;20051;-90
2021/08/09 07:55:05;;;;;;;17.90;7.57;;;;;;;30.55;30.74;93442.44;5110326;28;20065;-90
2021/08/09 07:57:32;;;;;;;13.13;7.15;;;;;;;30.92;31.60;93497.38;5109735;28;20086;-88
2021/08/09 08:00:00;;;;;;;12.57;6.75;;;;;;;31.66;31.07;93517.72;5110524;28;20051;-90
2021/08/09 08:02:27;;;;;;;12.80;6.40;;;;;;;32.03;28.86;93527.50;5110378;28;20055;-90
2021/08/09 08:04:54;;;;;;;14.18;5.90;;;;;;;31.31;28.51;93463.31;5110258;28;20058;-91
2021/08/09 08:07:21;;;;;;;16.05;6.18;;;;;;;31.42;29.54;93515.91;5110283;28;20106;-87
2021/08/09 08:09:48;;;;;;;12.10;6.03;;;;;;;31.32;29.41;93474.66;5110078;28;20047;-89
2021/08/09 08:12:16;;;;;;;110.43;14.35;;;;;;;31.62;29.70;93537.31;5110420;28;20080;-87
2021/08/09 08:14:42;;;;;;;19.02;7.40;;;;;;;31.22;30.15;93528.94;5110105;28;20040;-88
2021/08/09 08:17:11;;;;;;;21.35;11.35;;;;;;;31.29;30.21;93492.03;5110324;28;20518;-88
2021/08/09 08:19:38;;;;;;;17.40;8.02;;;;;;;31.75;29.96;93530.09;5110299;28;20051;-86
2021/08/09 08:22:04;;;;;;;15.93;7.18;;;;;;;30.95;29.77;93448.94;5109863;28;20051;-89
2021/08/09 08:24:31;;;;;;;10.45;5.70;;;;;;;31.70;28.95;93509.88;5109959;28;20046;-89
2021/08/09 08:26:58;;;;;;;11.45;5.82;;;;;;;32.13;30.12;93507.63;5109817;28;20062;-88
2021/08/09 08:29:25;;;;;;;16.15;6.43;;;;;;;32.38;29.32;93487.00;5109960;27;20043;-88
2021/08/09 08:31:53;;;;;;;14.57;6.03;;;;;;;32.45;27.98;93525.53;5109931;28;20052;-90
2021/08/09 08:34:21;;;;;;;12.38;5.80;;;;;;;32.36;28.17;93499.09;5110108;28;20063;-87
2021/08/09 08:36:48;;;;;;;10.88;5.40;;;;;;;32.39;28.12;93532.94;5109676;28;20486;-88
2021/08/09 08:39:14;;;;;;;14.65;6.28;;;;;;;32.24;28.85;93529.94;5109560;28;20523;-85
2021/08/09 08:41:43;;;;;;;9.30;5.15;;;;;;;32.10;28.44;93497.66;5109825;28;20047;-88
2021/08/09 08:44:41;;;;;;;10.25;6.00;;;;;;;32.01;28.70;93459.88;5109713;28;20047;-88
2021/08/09 08:47:09;;;;;;;11.90;6.25;;;;;;;32.97;28.30;93530.97;5103381;28;20087;-88
2021/08/09 08:49:37;;;;;;;9.70;5.65;;;;;;;33.25;28.22;93498.13;5109207;28;20052;-88
2021/08/09 08:52:06;;;;;;;7.45;5.38;;;;;;;33.29;26.88;93494.44;5109652;28;20051;-90
2021/08/09 08:54:33;;;;;;;12.48;5.18;;;;;;;33.47;27.64;93475.41;5109325;28;20051;-88
2021/08/09 08:57:00;;;;;;;8.93;5.28;;;;;;;32.53;28.56;93524.59;5109543;28;20048;-89
2021/08/09 08:59:26;;;;;;;9.85;5.88;;;;;;;32.58;28.59;93527.00;5109266;28;20424;-88
2021/08/09 09:01:53;;;;;;;9.10;5.45;;;;;;;32.84;28.78;93509.75;5109102;28;20078;-90
2021/08/09 09:04:22;;;;;;;9.90;5.13;;;;;;;33.02;28.78;93530.72;5109342;28;20144;-86
2021/08/09 09:06:56;;;;;;;11.00;5.57;;;;;;;33.51;28.16;93526.06;5102778;28;20043;-88
2021/08/09 09:09:24;;;;;;;14.80;5.77;;;;;;;33.92;27.87;93520.44;5102791;28;20055;-90
2021/08/09 09:11:52;;;;;;;10.93;5.20;;;;;;;33.99;26.75;93488.59;5109517;28;20391;-87
2021/08/09 09:14:29;;;;;;;12.75;5.78;;;;;;;33.85;27.49;93527.19;5109466;28;20058;-90
2021/08/09 09:16:56;;;;;;;13.15;4.93;;;;;;;33.92;28.14;93523.88;5109185;28;20047;-90
2021/08/09 09:19:39;;;;;;;13.25;6.40;;;;;;;33.49;26.68;93443.13;5108483;28;20569;-87
2021/08/09 09:22:08;;;;;;;8.02;5.43;;;;;;;34.26;26.87;93523.41;5104972;28;20044;-90
2021/08/09 09:24:36;;;;;;;10.40;5.45;;;;;;;34.08;26.29;93445.75;5107752;28;20048;-89
2021/08/09 09:27:06;;;;;;;10.68;5.88;;;;;;;34.12;27.08;93455.34;5109514;28;20052;-90
2021/08/09 09:29:38;;;;;;;13.05;5.55;;;;;;;34.99;26.67;93520.03;5109359;28;20075;-90
2021/08/09 09:32:16;;;;;;;13.50;5.45;;;;;;;35.10;25.75;93504.22;5109163;28;20517;-88
2021/08/09 09:34:48;;;;;;;10.70;5.57;;;;;;;35.01;25.87;93479.63;5109337;28;20055;-88
2021/08/09 09:37:25;;;;;;;10.43;5.30;;;;;;;35.26;25.34;93490.69;5110225;28;20093;-87
2021/08/09 09:39:52;;;;;;;11.25;5.20;;;;;;;35.32;25.51;93512.53;5109660;28;20051;-89
2021/08/09 09:42:19;;;;;;;15.77;6.03;;;;;;;35.72;25.94;93510.38;5109003;28;20063;-89
2021/08/09 09:44:46;;;;;;;12.88;5.57;;;;;;;35.72;25.19;93459.59;5108912;28;20500;-89
2021/08/09 09:47:25;;;;;;;7.70;4.97;;;;;;;36.29;24.26;93506.03;5108878;28;20128;-89
2021/08/09 09:49:54;;;;;;;8.55;4.80;;;;;;;36.05;23.93;93495.47;5109248;28;20055;-87
2021/08/09 09:52:37;;;;;;;16.42;6.32;;;;;;;36.09;24.28;93452.72;5109476;28;20148;-89
2021/08/09 09:55:07;;;;;;;9.75;4.80;;;;;;;36.34;24.03;93493.13;5109201;28;20047;-87
2021/08/09 09:57:35;;;;;;;8.02;5.18;;;;;;;35.96;24.76;93430.84;5108989;28;20051;-89
2021/08/09 10:00:04;;;;;;;11.68;5.13;;;;;;;36.54;24.31;93481.41;5109012;28;20044;-89
2021/08/09 10:02:30;;;;;;;12.88;5.47;;;;;;;36.76;24.37;93493.09;5108041;28;20050;-87
2021/08/09 10:04:57;;;;;;;12.15;5.40;;;;;;;36.53;23.85;93491.34;5110847;28;20048;-88
2021/08/09 10:07:26;;;;;;;11.07;5.82;;;;;;;35.51;24.22;93484.13;5112827;28;20043;-89
2021/08/09 10:09:56;;;;;;;9.25;5.70;;;;;;;35.76;24.41;93435.59;5113397;28;20051;-87
2021/08/09 10:12:27;;;;;;;8.07;5.10;;;;;;;35.01;24.54;93444.94;5113597;28;20055;-87
2021/08/09 10:14:55;;;;;;;8.23;5.00;;;;;;;35.31;25.14;93490.38;5112265;28;20058;-89
2021/08/09 10:17:23;;;;;;;15.13;4.88;;;;;;;35.92;25.16;93475.47;5111884;28;20429;-88
2021/08/09 10:19:53;;;;;;;12.05;5.15;;;;;;;36.28;24.08;93443.00;5112783;28;20090;-88
2021/08/09 10:22:21;;;;;;;11.10;5.00;;;;;;;35.57;24.51;93483.47;5112463;28;20496;-87
2021/08/09 10:24:51;;;;;;;19.13;5.93;;;;;;;35.37;25.00;93480.16;5112530;28;20055;-89
2021/08/09 10:27:53;;;;;;;11.07;4.90;;;;;;;35.80;24.62;93484.50;5111903;28;20055;-90
2021/08/09 10:30:21;;;;;;;41.10;29.88;;;;;;;34.94;25.29;93479.53;5112201;28;20500;-88
2021/08/09 10:32:50;;;;;;;11.00;8.13;;;;;;;34.58;24.76;93469.09;5112401;28;20046;-90
2021/08/09 10:36:12;;;;;;;14.57;7.57;;;;;;;34.85;25.50;93479.78;5112548;28;20138;-87
2021/08/09 10:38:44;;;;;;;8.35;5.15;;;;;;;35.37;24.93;93466.81;5102892;28;20066;-88
2021/08/09 10:41:53;;;;;;;11.40;5.95;;;;;;;35.89;23.90;93465.50;5112510;28;20134;-90
2021/08/09 10:44:23;;;;;;;12.77;5.05;;;;;;;36.22;23.38;93466.63;5112168;28;20044;-89
2021/08/09 10:46:51;;;;;;;9.95;4.28;;;;;;;35.58;23.25;93442.25;5112434;28;20135;-87
2021/08/09 10:49:57;;;;;;;8.93;4.22;;;;;;;35.49;23.30;93476.47;5112276;28;20109;-87
2021/08/09 10:52:46;;;;;;;12.48;4.00;;;;;;;34.82;23.42;93477.81;5112366;28;20449;-85
2021/08/09 10:55:46;;;;;;;11.27;4.72;;;;;;;35.49;22.84;93465.78;5111774;28;20052;-87
2021/08/09 10:58:53;;;;;;;11.40;4.43;;;;;;;35.74;22.05;93477.94;5111939;27;20063;-90
2021/08/09 11:01:23;;;;;;;7.78;4.53;;;;;;;34.80;23.15;93477.44;5112549;28;20132;-88
2021/08/09 11:04:15;;;;;;;6.97;4.03;;;;;;;34.79;22.44;93471.31;5111610;28;20101;-90
2021/08/09 11:06:50;;;;;;;6.50;4.00;;;;;;;33.97;22.91;93379.69;5112047;28;20381;-91
2021/08/09 11:09:35;;;;;;;;;;;;;;;34.78;23.04;93473.22;5112073;28;20079;-90
2021/08/09 11:12:14;;;;;;;9.32;4.40;;;;;;;34.82;22.56;93445.81;5111444;28;19956;-87
2021/08/09 11:15:12;;;;;;;13.65;4.25;;;;;;;35.32;23.18;93467.13;5111360;28;20051;-89
2021/08/09 11:17:52;;;;;;;10.38;3.60;;;;;;;35.67;22.58;93444.66;5111759;28;20052;-88
2021/08/09 11:20:21;;;;;;;13.00;7.60;;;;;;;35.94;22.36;93476.66;5111301;28;20058;-88
2021/08/09 11:22:56;;;;;;;10.65;4.53;;;;;;;36.20;21.95;93461.66;5111678;28;20401;-88
2021/08/09 11:25:28;;;;;;;7.15;3.88;;;;;;;36.06;22.41;93464.94;5111237;28;20055;-88
2021/08/09 11:28:10;;;;;;;7.70;3.83;;;;;;;36.21;22.41;93467.75;5111587;28;20056;-91
2021/08/09 11:30:48;;;;;;;12.25;4.10;;;;;;;36.33;21.77;93451.44;5112163;28;20055;-87
2021/08/09 11:33:28;;;;;;;9.32;4.22;;;;;;;36.43;21.45;93467.97;5111332;28;20044;-88
2021/08/09 11:35:57;;;;;;;5.13;3.50;;;;;;;35.97;21.19;93416.34;5110970;27;20051;-87
2021/08/09 11:41:36;;;;;;;7.20;4.13;;;;;;;36.13;21.11;93380.63;5110160;28;20047;-89